sensor_id;sensor_type;location;lat;lon;timestamp;P1;durP1;ratioP1;P2;durP2;ratioP2
529;SDS011;251;48.704;9.210;2022-12-16T00:01:03;5.15;;;4.07;;
529;SDS011;251;48.704;9.210;2022-12-16T00:03:33;11.82;;;7.15;;
529;SDS011;251;48.704;9.210;2022-12-16T00:06:00;12.75;;;7.28;;
529;SDS011;251;48.704;9.210;2022-12-16T00:08:30;8.25;;;6.50;;
529;SDS011;251;48.704;9.210;2022-12-16T00:10:57;18.73;;;8.38;;
529;SDS011;251;48.704;9.210;2022-12-16T00:13:25;14.32;;;8.60;;
529;SDS011;251;48.704;9.210;2022-12-16T00:15:51;12.32;;;5.35;;
529;SDS011;251;48.704;9.210;2022-12-16T00:18:18;9.02;;;6.95;;
529;SDS011;251;48.704;9.210;2022-12-16T00:20:46;11.00;;;5.78;;
529;SDS011;251;48.704;9.210;2022-12-16T00:23:15;12.45;;;5.15;;
529;SDS011;251;48.704;9.210;2022-12-16T00:25:42;17.25;;;8.18;;
529;SDS011;251;48.704;9.210;2022-12-16T00:28:09;9.05;;;6.80;;
529;SDS011;251;48.704;9.210;2022-12-16T00:30:37;13.73;;;8.88;;
529;SDS011;251;48.704;9.210;2022-12-16T00:33:06;17.42;;;6.95;;
529;SDS011;251;48.704;9.210;2022-12-16T00:35:33;9.93;;;6.47;;
529;SDS011;251;48.704;9.210;2022-12-16T00:38:01;16.52;;;8.55;;
529;SDS011;251;48.704;9.210;2022-12-16T00:40:28;8.80;;;6.25;;
529;SDS011;251;48.704;9.210;2022-12-16T00:42:55;9.13;;;6.53;;
529;SDS011;251;48.704;9.210;2022-12-16T00:45:22;8.80;;;5.65;;
529;SDS011;251;48.704;9.210;2022-12-16T00:47:49;5.90;;;5.35;;
529;SDS011;251;48.704;9.210;2022-12-16T00:50:16;10.30;;;7.03;;
529;SDS011;251;48.704;9.210;2022-12-16T00:52:44;21.55;;;7.35;;
529;SDS011;251;48.704;9.210;2022-12-16T00:55:13;13.13;;;7.53;;
529;SDS011;251;48.704;9.210;2022-12-16T00:57:40;11.00;;;6.82;;
529;SDS011;251;48.704;9.210;2022-12-16T01:00:08;14.15;;;6.95;;
529;SDS011;251;48.704;9.210;2022-12-16T01:02:37;19.02;;;6.22;;
529;SDS011;251;48.704;9.210;2022-12-16T01:05:05;12.73;;;5.50;;
529;SDS011;251;48.704;9.210;2022-12-16T01:07:33;13.20;;;7.55;;
529;SDS011;251;48.704;9.210;2022-12-16T01:09:59;16.08;;;8.52;;
529;SDS011;251;48.704;9.210;2022-12-16T01:12:28;8.75;;;7.68;;
529;SDS011;251;48.704;9.210;2022-12-16T01:14:55;13.40;;;8.18;;
529;SDS011;251;48.704;9.210;2022-12-16T01:17:21;7.05;;;6.40;;
529;SDS011;251;48.704;9.210;2022-12-16T01:19:50;9.35;;;6.38;;
529;SDS011;251;48.704;9.210;2022-12-16T01:22:17;5.65;;;4.97;;
529;SDS011;251;48.704;9.210;2022-12-16T01:24:44;12.38;;;7.40;;
529;SDS011;251;48.704;9.210;2022-12-16T01:27:11;12.63;;;8.68;;
529;SDS011;251;48.704;9.210;2022-12-16T01:29:39;13.80;;;6.97;;
529;SDS011;251;48.704;9.210;2022-12-16T01:32:07;10.00;;;6.88;;
529;SDS011;251;48.704;9.210;2022-12-16T01:34:37;12.35;;;7.82;;
529;SDS011;251;48.704;9.210;2022-12-16T01:37:04;7.78;;;5.65;;
529;SDS011;251;48.704;9.210;2022-12-16T01:39:31;12.65;;;7.70;;
529;SDS011;251;48.704;9.210;2022-12-16T01:41:58;11.68;;;6.82;;
529;SDS011;251;48.704;9.210;2022-12-16T01:44:25;11.70;;;7.28;;
529;SDS011;251;48.704;9.210;2022-12-16T01:46:54;8.07;;;6.22;;
529;SDS011;251;48.704;9.210;2022-12-16T01:49:25;16.02;;;6.80;;
529;SDS011;251;48.704;9.210;2022-12-16T01:51:56;15.25;;;8.65;;
529;SDS011;251;48.704;9.210;2022-12-16T01:54:28;7.63;;;6.85;;
529;SDS011;251;48.704;9.210;2022-12-16T01:56:59;11.73;;;7.85;;
529;SDS011;251;48.704;9.210;2022-12-16T01:59:28;11.77;;;6.60;;
529;SDS011;251;48.704;9.210;2022-12-16T02:01:58;11.10;;;7.80;;
529;SDS011;251;48.704;9.210;2022-12-16T02:04:26;12.75;;;7.10;;
529;SDS011;251;48.704;9.210;2022-12-16T02:06:53;10.98;;;5.75;;
529;SDS011;251;48.704;9.210;2022-12-16T02:09:20;10.63;;;7.03;;
529;SDS011;251;48.704;9.210;2022-12-16T02:11:56;10.60;;;6.38;;
529;SDS011;251;48.704;9.210;2022-12-16T02:17:37;12.88;;;6.15;;
529;SDS011;251;48.704;9.210;2022-12-16T02:20:20;5.13;;;4.60;;
529;SDS011;251;48.704;9.210;2022-12-16T02:23:15;12.88;;;5.93;;
529;SDS011;251;48.704;9.210;2022-12-16T02:26:08;8.68;;;4.15;;
529;SDS011;251;48.704;9.210;2022-12-16T02:29:05;10.15;;;6.38;;
529;SDS011;251;48.704;9.210;2022-12-16T02:31:49;11.93;;;8.18;;
529;SDS011;251;48.704;9.210;2022-12-16T02:34:25;9.68;;;7.82;;
529;SDS011;251;48.704;9.210;2022-12-16T02:37:01;6.88;;;5.72;;
529;SDS011;251;48.704;9.210;2022-12-16T02:39:37;13.40;;;7.32;;
529;SDS011;251;48.704;9.210;2022-12-16T02:42:10;12.85;;;7.65;;
529;SDS011;251;48.704;9.210;2022-12-16T02:44:42;12.02;;;8.50;;
529;SDS011;251;48.704;9.210;2022-12-16T02:47:15;6.63;;;4.72;;
529;SDS011;251;48.704;9.210;2022-12-16T02:49:46;9.45;;;7.10;;
529;SDS011;251;48.704;9.210;2022-12-16T02:52:15;6.10;;;4.32;;
529;SDS011;251;48.704;9.210;2022-12-16T02:54:44;7.15;;;4.80;;
529;SDS011;251;48.704;9.210;2022-12-16T03:00:07;10.88;;;6.25;;
529;SDS011;251;48.704;9.210;2022-12-16T03:02:40;13.98;;;9.95;;
529;SDS011;251;48.704;9.210;2022-12-16T03:05:13;13.00;;;7.20;;
529;SDS011;251;48.704;9.210;2022-12-16T03:07:45;13.18;;;9.13;;
529;SDS011;251;48.704;9.210;2022-12-16T03:10:15;10.82;;;5.90;;
529;SDS011;251;48.704;9.210;2022-12-16T03:12:46;8.20;;;6.25;;
529;SDS011;251;48.704;9.210;2022-12-16T03:15:14;7.75;;;6.18;;
529;SDS011;251;48.704;9.210;2022-12-16T03:17:47;10.70;;;6.78;;
529;SDS011;251;48.704;9.210;2022-12-16T03:20:18;11.50;;;6.75;;
529;SDS011;251;48.704;9.210;2022-12-16T03:22:50;14.50;;;8.10;;
529;SDS011;251;48.704;9.210;2022-12-16T03:25:20;14.93;;;6.97;;
529;SDS011;251;48.704;9.210;2022-12-16T03:27:50;12.63;;;6.00;;
529;SDS011;251;48.704;9.210;2022-12-16T03:30:24;10.32;;;5.28;;
529;SDS011;251;48.704;9.210;2022-12-16T03:32:56;8.98;;;6.53;;
529;SDS011;251;48.704;9.210;2022-12-16T03:35:27;12.82;;;7.10;;
529;SDS011;251;48.704;9.210;2022-12-16T03:37:58;8.80;;;5.32;;
529;SDS011;251;48.704;9.210;2022-12-16T03:40:27;13.88;;;6.93;;
529;SDS011;251;48.704;9.210;2022-12-16T03:42:54;12.65;;;7.07;;
529;SDS011;251;48.704;9.210;2022-12-16T03:45:23;11.45;;;7.85;;
529;SDS011;251;48.704;9.210;2022-12-16T03:47:55;11.73;;;7.25;;
529;SDS011;251;48.704;9.210;2022-12-16T03:50:25;9.20;;;6.65;;
529;SDS011;251;48.704;9.210;2022-12-16T03:52:55;9.98;;;5.20;;
529;SDS011;251;48.704;9.210;2022-12-16T03:55:22;10.32;;;6.13;;
529;SDS011;251;48.704;9.210;2022-12-16T03:57:48;6.55;;;5.28;;
529;SDS011;251;48.704;9.210;2022-12-16T04:00:15;8.85;;;6.65;;
529;SDS011;251;48.704;9.210;2022-12-16T04:02:43;10.48;;;6.07;;
529;SDS011;251;48.704;9.210;2022-12-16T04:05:11;10.65;;;8.68;;
529;SDS011;251;48.704;9.210;2022-12-16T04:07:38;10.13;;;4.95;;
529;SDS011;251;48.704;9.210;2022-12-16T04:10:05;7.75;;;5.40;;
529;SDS011;251;48.704;9.210;2022-12-16T04:12:32;10.88;;;8.02;;
529;SDS011;251;48.704;9.210;2022-12-16T04:15:17;7.55;;;4.95;;
529;SDS011;251;48.704;9.210;2022-12-16T04:18:02;4.80;;;3.95;;
529;SDS011;251;48.704;9.210;2022-12-16T04:20:48;9.13;;;6.47;;
529;SDS011;251;48.704;9.210;2022-12-16T04:23:38;10.68;;;8.32;;
529;SDS011;251;48.704;9.210;2022-12-16T04:26:28;16.17;;;6.38;;
529;SDS011;251;48.704;9.210;2022-12-16T04:28:56;11.98;;;7.07;;
529;SDS011;251;48.704;9.210;2022-12-16T04:31:22;13.43;;;7.15;;
529;SDS011;251;48.704;9.210;2022-12-16T04:33:49;8.73;;;6.78;;
529;SDS011;251;48.704;9.210;2022-12-16T04:36:35;11.77;;;6.57;;
529;SDS011;251;48.704;9.210;2022-12-16T04:39:19;10.75;;;6.80;;
529;SDS011;251;48.704;9.210;2022-12-16T04:42:04;10.73;;;5.22;;
529;SDS011;251;48.704;9.210;2022-12-16T04:44:47;10.35;;;6.78;;
529;SDS011;251;48.704;9.210;2022-12-16T04:47:31;7.97;;;5.82;;
529;SDS011;251;48.704;9.210;2022-12-16T04:50:15;15.30;;;7.53;;
529;SDS011;251;48.704;9.210;2022-12-16T04:53:00;14.23;;;7.07;;
529;SDS011;251;48.704;9.210;2022-12-16T04:55:45;13.80;;;8.10;;
529;SDS011;251;48.704;9.210;2022-12-16T04:58:29;21.15;;;6.68;;
529;SDS011;251;48.704;9.210;2022-12-16T05:01:13;14.52;;;6.63;;
529;SDS011;251;48.704;9.210;2022-12-16T05:03:58;11.00;;;5.43;;
529;SDS011;251;48.704;9.210;2022-12-16T05:06:42;9.30;;;6.20;;
529;SDS011;251;48.704;9.210;2022-12-16T05:09:27;7.97;;;6.68;;
529;SDS011;251;48.704;9.210;2022-12-16T05:12:12;8.20;;;7.20;;
529;SDS011;251;48.704;9.210;2022-12-16T05:14:56;9.63;;;7.03;;
529;SDS011;251;48.704;9.210;2022-12-16T05:17:41;12.35;;;6.85;;
529;SDS011;251;48.704;9.210;2022-12-16T05:20:25;9.98;;;6.70;;
529;SDS011;251;48.704;9.210;2022-12-16T05:23:06;9.82;;;5.95;;
529;SDS011;251;48.704;9.210;2022-12-16T05:25:51;10.57;;;7.18;;
529;SDS011;251;48.704;9.210;2022-12-16T05:28:36;10.70;;;6.63;;
529;SDS011;251;48.704;9.210;2022-12-16T05:31:20;8.27;;;5.00;;
529;SDS011;251;48.704;9.210;2022-12-16T05:34:04;13.73;;;8.65;;
529;SDS011;251;48.704;9.210;2022-12-16T05:36:49;7.50;;;5.70;;
529;SDS011;251;48.704;9.210;2022-12-16T05:39:33;11.25;;;8.70;;
529;SDS011;251;48.704;9.210;2022-12-16T05:42:18;14.93;;;8.32;;
529;SDS011;251;48.704;9.210;2022-12-16T05:45:03;15.43;;;5.80;;
529;SDS011;251;48.704;9.210;2022-12-16T05:47:48;9.98;;;7.53;;
529;SDS011;251;48.704;9.210;2022-12-16T05:50:32;12.85;;;9.13;;
529;SDS011;251;48.704;9.210;2022-12-16T05:53:17;10.80;;;7.15;;
529;SDS011;251;48.704;9.210;2022-12-16T05:56:02;11.55;;;5.60;;
529;SDS011;251;48.704;9.210;2022-12-16T05:58:48;8.63;;;6.45;;
529;SDS011;251;48.704;9.210;2022-12-16T06:01:32;13.68;;;5.57;;
529;SDS011;251;48.704;9.210;2022-12-16T06:04:17;11.10;;;7.82;;
529;SDS011;251;48.704;9.210;2022-12-16T06:07:01;10.30;;;6.40;;
529;SDS011;251;48.704;9.210;2022-12-16T06:09:47;8.35;;;6.45;;
529;SDS011;251;48.704;9.210;2022-12-16T06:12:31;12.75;;;7.40;;
529;SDS011;251;48.704;9.210;2022-12-16T06:15:17;8.80;;;5.95;;
529;SDS011;251;48.704;9.210;2022-12-16T06:18:01;10.20;;;6.10;;
529;SDS011;251;48.704;9.210;2022-12-16T06:20:46;9.65;;;7.10;;
529;SDS011;251;48.704;9.210;2022-12-16T06:23:30;10.68;;;6.00;;
529;SDS011;251;48.704;9.210;2022-12-16T06:26:14;5.88;;;4.82;;
529;SDS011;251;48.704;9.210;2022-12-16T06:28:59;8.63;;;6.20;;
529;SDS011;251;48.704;9.210;2022-12-16T06:31:45;12.23;;;5.78;;
529;SDS011;251;48.704;9.210;2022-12-16T06:34:29;9.02;;;4.68;;
529;SDS011;251;48.704;9.210;2022-12-16T06:37:13;14.60;;;7.57;;
529;SDS011;251;48.704;9.210;2022-12-16T06:39:58;16.35;;;7.22;;
529;SDS011;251;48.704;9.210;2022-12-16T06:42:42;8.45;;;6.43;;
529;SDS011;251;48.704;9.210;2022-12-16T06:45:26;13.20;;;6.35;;
529;SDS011;251;48.704;9.210;2022-12-16T06:48:12;5.00;;;4.32;;
529;SDS011;251;48.704;9.210;2022-12-16T06:50:57;5.38;;;4.70;;
529;SDS011;251;48.704;9.210;2022-12-16T06:53:41;11.23;;;6.13;;
529;SDS011;251;48.704;9.210;2022-12-16T06:56:25;6.50;;;4.43;;
529;SDS011;251;48.704;9.210;2022-12-16T06:59:10;21.48;;;7.20;;
529;SDS011;251;48.704;9.210;2022-12-16T07:01:54;10.38;;;5.43;;
529;SDS011;251;48.704;9.210;2022-12-16T07:04:40;5.70;;;4.03;;
529;SDS011;251;48.704;9.210;2022-12-16T07:07:24;7.38;;;5.25;;
529;SDS011;251;48.704;9.210;2022-12-16T07:10:08;9.57;;;5.60;;
529;SDS011;251;48.704;9.210;2022-12-16T07:12:55;8.55;;;5.05;;
529;SDS011;251;48.704;9.210;2022-12-16T07:15:40;8.43;;;5.30;;
529;SDS011;251;48.704;9.210;2022-12-16T07:18:24;11.07;;;6.20;;
529;SDS011;251;48.704;9.210;2022-12-16T07:21:13;8.82;;;7.45;;
529;SDS011;251;48.704;9.210;2022-12-16T07:23:59;15.32;;;3.40;;
529;SDS011;251;48.704;9.210;2022-12-16T07:26:45;7.10;;;6.40;;
529;SDS011;251;48.704;9.210;2022-12-16T07:29:31;6.53;;;4.93;;
529;SDS011;251;48.704;9.210;2022-12-16T07:32:15;10.02;;;6.07;;
529;SDS011;251;48.704;9.210;2022-12-16T07:34:59;9.40;;;6.35;;
529;SDS011;251;48.704;9.210;2022-12-16T07:37:45;6.30;;;5.70;;
529;SDS011;251;48.704;9.210;2022-12-16T07:40:29;6.57;;;4.25;;
529;SDS011;251;48.704;9.210;2022-12-16T07:43:13;10.07;;;4.88;;
529;SDS011;251;48.704;9.210;2022-12-16T07:45:57;6.90;;;3.67;;
529;SDS011;251;48.704;9.210;2022-12-16T07:48:42;8.63;;;4.82;;
529;SDS011;251;48.704;9.210;2022-12-16T07:51:26;3.83;;;3.40;;
529;SDS011;251;48.704;9.210;2022-12-16T07:54:12;6.55;;;5.13;;
529;SDS011;251;48.704;9.210;2022-12-16T07:56:56;5.78;;;4.80;;
529;SDS011;251;48.704;9.210;2022-12-16T07:59:40;11.82;;;5.82;;
529;SDS011;251;48.704;9.210;2022-12-16T08:02:25;7.95;;;3.78;;
529;SDS011;251;48.704;9.210;2022-12-16T08:05:09;5.97;;;5.38;;
529;SDS011;251;48.704;9.210;2022-12-16T08:07:54;7.15;;;4.47;;
529;SDS011;251;48.704;9.210;2022-12-16T08:10:48;5.57;;;3.85;;
529;SDS011;251;48.704;9.210;2022-12-16T08:13:32;5.82;;;4.28;;
529;SDS011;251;48.704;9.210;2022-12-16T08:16:16;7.35;;;4.97;;
529;SDS011;251;48.704;9.210;2022-12-16T08:19:01;9.65;;;5.85;;
529;SDS011;251;48.704;9.210;2022-12-16T08:21:45;10.38;;;5.82;;
529;SDS011;251;48.704;9.210;2022-12-16T08:24:30;7.82;;;4.45;;
529;SDS011;251;48.704;9.210;2022-12-16T08:27:15;8.68;;;5.22;;
529;SDS011;251;48.704;9.210;2022-12-16T08:30:00;8.73;;;5.93;;
529;SDS011;251;48.704;9.210;2022-12-16T08:32:44;5.93;;;4.30;;
529;SDS011;251;48.704;9.210;2022-12-16T08:35:28;10.80;;;4.72;;
529;SDS011;251;48.704;9.210;2022-12-16T08:38:12;8.55;;;5.70;;
529;SDS011;251;48.704;9.210;2022-12-16T08:40:57;7.90;;;5.50;;
529;SDS011;251;48.704;9.210;2022-12-16T08:43:42;5.03;;;3.85;;
529;SDS011;251;48.704;9.210;2022-12-16T08:46:26;5.97;;;3.88;;
529;SDS011;251;48.704;9.210;2022-12-16T08:49:11;6.72;;;5.07;;
529;SDS011;251;48.704;9.210;2022-12-16T08:51:55;8.68;;;4.90;;
529;SDS011;251;48.704;9.210;2022-12-16T08:54:39;5.60;;;4.38;;
529;SDS011;251;48.704;9.210;2022-12-16T08:57:24;4.88;;;4.47;;
529;SDS011;251;48.704;9.210;2022-12-16T09:00:10;5.25;;;4.75;;
529;SDS011;251;48.704;9.210;2022-12-16T09:02:55;9.20;;;6.10;;
529;SDS011;251;48.704;9.210;2022-12-16T09:05:39;6.88;;;3.90;;
529;SDS011;251;48.704;9.210;2022-12-16T09:08:24;7.03;;;3.95;;
529;SDS011;251;48.704;9.210;2022-12-16T09:11:08;6.85;;;3.95;;
529;SDS011;251;48.704;9.210;2022-12-16T09:13:52;5.82;;;3.35;;
529;SDS011;251;48.704;9.210;2022-12-16T09:16:38;10.68;;;6.88;;
529;SDS011;251;48.704;9.210;2022-12-16T09:19:22;8.80;;;4.32;;
529;SDS011;251;48.704;9.210;2022-12-16T09:22:07;7.35;;;4.55;;
529;SDS011;251;48.704;9.210;2022-12-16T09:24:52;3.95;;;3.10;;
529;SDS011;251;48.704;9.210;2022-12-16T09:27:36;10.40;;;4.05;;
529;SDS011;251;48.704;9.210;2022-12-16T09:30:20;4.18;;;2.55;;
529;SDS011;251;48.704;9.210;2022-12-16T09:33:06;5.43;;;3.67;;
529;SDS011;251;48.704;9.210;2022-12-16T09:35:51;11.20;;;5.97;;
529;SDS011;251;48.704;9.210;2022-12-16T09:38:35;13.00;;;4.85;;
529;SDS011;251;48.704;9.210;2022-12-16T09:41:22;9.50;;;3.83;;
529;SDS011;251;48.704;9.210;2022-12-16T09:44:17;8.38;;;5.90;;
529;SDS011;251;48.704;9.210;2022-12-16T09:47:06;4.28;;;3.85;;
529;SDS011;251;48.704;9.210;2022-12-16T09:49:59;3.33;;;2.30;;
529;SDS011;251;48.704;9.210;2022-12-16T09:52:43;8.13;;;6.00;;
529;SDS011;251;48.704;9.210;2022-12-16T09:55:31;5.22;;;4.78;;
529;SDS011;251;48.704;9.210;2022-12-16T09:58:21;5.95;;;3.72;;
529;SDS011;251;48.704;9.210;2022-12-16T10:01:09;18.92;;;5.63;;
529;SDS011;251;48.704;9.210;2022-12-16T10:03:55;4.05;;;3.53;;
529;SDS011;251;48.704;9.210;2022-12-16T10:06:43;5.28;;;3.13;;
529;SDS011;251;48.704;9.210;2022-12-16T10:09:31;6.35;;;4.25;;
529;SDS011;251;48.704;9.210;2022-12-16T10:12:23;2.95;;;2.58;;
529;SDS011;251;48.704;9.210;2022-12-16T10:15:15;8.00;;;3.20;;
529;SDS011;251;48.704;9.210;2022-12-16T10:18:11;4.75;;;3.10;;
529;SDS011;251;48.704;9.210;2022-12-16T10:21:05;6.10;;;3.38;;
529;SDS011;251;48.704;9.210;2022-12-16T10:23:55;3.13;;;2.83;;
529;SDS011;251;48.704;9.210;2022-12-16T10:26:48;4.97;;;2.70;;
529;SDS011;251;48.704;9.210;2022-12-16T10:29:37;5.28;;;4.07;;
529;SDS011;251;48.704;9.210;2022-12-16T10:32:26;3.67;;;2.88;;
529;SDS011;251;48.704;9.210;2022-12-16T10:35:17;10.27;;;3.67;;
529;SDS011;251;48.704;9.210;2022-12-16T10:38:04;4.75;;;3.60;;
529;SDS011;251;48.704;9.210;2022-12-16T10:40:58;4.13;;;3.35;;
529;SDS011;251;48.704;9.210;2022-12-16T10:43:43;7.78;;;4.47;;
529;SDS011;251;48.704;9.210;2022-12-16T10:46:42;7.85;;;3.45;;
529;SDS011;251;48.704;9.210;2022-12-16T10:49:26;5.07;;;4.50;;
529;SDS011;251;48.704;9.210;2022-12-16T10:52:12;3.90;;;2.75;;
529;SDS011;251;48.704;9.210;2022-12-16T10:55:11;7.80;;;4.22;;
529;SDS011;251;48.704;9.210;2022-12-16T10:58:11;4.43;;;3.08;;
529;SDS011;251;48.704;9.210;2022-12-16T11:01:02;7.35;;;4.28;;
529;SDS011;251;48.704;9.210;2022-12-16T11:04:05;7.35;;;3.22;;
529;SDS011;251;48.704;9.210;2022-12-16T11:07:21;4.95;;;3.53;;
529;SDS011;251;48.704;9.210;2022-12-16T11:10:27;5.13;;;3.53;;
529;SDS011;251;48.704;9.210;2022-12-16T11:13:19;6.18;;;3.78;;
529;SDS011;251;48.704;9.210;2022-12-16T11:16:07;5.65;;;4.13;;
529;SDS011;251;48.704;9.210;2022-12-16T11:18:57;5.68;;;2.85;;
529;SDS011;251;48.704;9.210;2022-12-16T11:21:43;5.15;;;3.95;;
529;SDS011;251;48.704;9.210;2022-12-16T11:24:36;6.50;;;3.22;;
529;SDS011;251;48.704;9.210;2022-12-16T11:27:22;5.63;;;4.47;;
529;SDS011;251;48.704;9.210;2022-12-16T11:30:16;7.38;;;2.97;;
529;SDS011;251;48.704;9.210;2022-12-16T11:33:05;4.78;;;3.85;;
529;SDS011;251;48.704;9.210;2022-12-16T11:36:03;6.53;;;4.40;;
529;SDS011;251;48.704;9.210;2022-12-16T11:38:52;4.30;;;2.80;;
529;SDS011;251;48.704;9.210;2022-12-16T11:41:37;4.75;;;2.65;;
529;SDS011;251;48.704;9.210;2022-12-16T11:44:25;5.10;;;2.78;;
529;SDS011;251;48.704;9.210;2022-12-16T11:47:17;5.88;;;3.53;;
529;SDS011;251;48.704;9.210;2022-12-16T11:50:07;5.93;;;4.25;;
529;SDS011;251;48.704;9.210;2022-12-16T11:52:57;5.18;;;3.60;;
529;SDS011;251;48.704;9.210;2022-12-16T11:55:44;6.93;;;2.78;;
529;SDS011;251;48.704;9.210;2022-12-16T11:58:35;8.35;;;4.45;;
529;SDS011;251;48.704;9.210;2022-12-16T12:01:23;5.65;;;3.50;;
529;SDS011;251;48.704;9.210;2022-12-16T12:04:12;6.40;;;3.83;;
529;SDS011;251;48.704;9.210;2022-12-16T12:07:04;4.25;;;3.08;;
529;SDS011;251;48.704;9.210;2022-12-16T12:10:12;6.15;;;4.38;;
529;SDS011;251;48.704;9.210;2022-12-16T12:13:11;2.92;;;2.63;;
529;SDS011;251;48.704;9.210;2022-12-16T12:16:04;4.50;;;3.28;;
529;SDS011;251;48.704;9.210;2022-12-16T12:18:57;4.53;;;3.17;;
529;SDS011;251;48.704;9.210;2022-12-16T12:21:48;7.43;;;3.72;;
529;SDS011;251;48.704;9.210;2022-12-16T12:24:40;6.28;;;4.07;;
529;SDS011;251;48.704;9.210;2022-12-16T12:27:32;5.43;;;4.05;;
529;SDS011;251;48.704;9.210;2022-12-16T12:30:22;4.97;;;4.47;;
529;SDS011;251;48.704;9.210;2022-12-16T12:33:17;4.07;;;3.10;;
529;SDS011;251;48.704;9.210;2022-12-16T12:36:08;7.95;;;3.40;;
529;SDS011;251;48.704;9.210;2022-12-16T12:39:02;2.55;;;2.10;;
529;SDS011;251;48.704;9.210;2022-12-16T12:42:07;2.33;;;1.95;;
529;SDS011;251;48.704;9.210;2022-12-16T12:45:03;6.25;;;4.28;;
529;SDS011;251;48.704;9.210;2022-12-16T12:48:04;4.22;;;3.65;;
529;SDS011;251;48.704;9.210;2022-12-16T12:51:02;5.25;;;2.90;;
529;SDS011;251;48.704;9.210;2022-12-16T12:53:54;4.93;;;3.53;;
529;SDS011;251;48.704;9.210;2022-12-16T12:56:49;3.78;;;2.65;;
529;SDS011;251;48.704;9.210;2022-12-16T12:59:39;3.75;;;2.65;;
529;SDS011;251;48.704;9.210;2022-12-16T13:02:33;5.68;;;3.38;;
529;SDS011;251;48.704;9.210;2022-12-16T13:05:26;6.57;;;4.13;;
529;SDS011;251;48.704;9.210;2022-12-16T13:11:13;10.82;;;3.75;;
529;SDS011;251;48.704;9.210;2022-12-16T13:13:59;5.00;;;2.20;;
529;SDS011;251;48.704;9.210;2022-12-16T13:19:51;4.90;;;3.47;;
529;SDS011;251;48.704;9.210;2022-12-16T13:22:37;7.07;;;2.80;;
529;SDS011;251;48.704;9.210;2022-12-16T13:28:28;6.30;;;2.20;;
529;SDS011;251;48.704;9.210;2022-12-16T13:31:17;3.80;;;2.45;;
529;SDS011;251;48.704;9.210;2022-12-16T13:34:20;6.80;;;2.45;;
529;SDS011;251;48.704;9.210;2022-12-16T13:37:15;3.50;;;2.38;;
529;SDS011;251;48.704;9.210;2022-12-16T13:40:05;3.80;;;3.40;;
529;SDS011;251;48.704;9.210;2022-12-16T13:42:59;6.13;;;2.78;;
529;SDS011;251;48.704;9.210;2022-12-16T13:45:43;5.10;;;3.72;;
529;SDS011;251;48.704;9.210;2022-12-16T13:52:18;5.25;;;4.78;;
529;SDS011;251;48.704;9.210;2022-12-16T13:55:10;4.55;;;3.38;;
529;SDS011;251;48.704;9.210;2022-12-16T13:58:09;4.45;;;2.20;;
529;SDS011;251;48.704;9.210;2022-12-16T14:01:05;4.35;;;2.67;;
529;SDS011;251;48.704;9.210;2022-12-16T14:03:54;5.03;;;2.88;;
529;SDS011;251;48.704;9.210;2022-12-16T14:06:41;4.75;;;2.78;;
529;SDS011;251;48.704;9.210;2022-12-16T14:09:32;9.05;;;4.45;;
529;SDS011;251;48.704;9.210;2022-12-16T14:12:25;2.45;;;1.65;;
529;SDS011;251;48.704;9.210;2022-12-16T14:15:27;7.07;;;4.68;;
529;SDS011;251;48.704;9.210;2022-12-16T14:18:20;5.30;;;2.33;;
529;SDS011;251;48.704;9.210;2022-12-16T14:21:12;6.03;;;3.83;;
529;SDS011;251;48.704;9.210;2022-12-16T14:24:03;5.18;;;3.50;;
529;SDS011;251;48.704;9.210;2022-12-16T14:26:55;15.43;;;4.25;;
529;SDS011;251;48.704;9.210;2022-12-16T14:29:41;5.80;;;3.45;;
529;SDS011;251;48.704;9.210;2022-12-16T14:32:27;3.05;;;1.73;;
529;SDS011;251;48.704;9.210;2022-12-16T14:35:13;7.35;;;3.40;;
529;SDS011;251;48.704;9.210;2022-12-16T14:38:11;5.25;;;2.78;;
529;SDS011;251;48.704;9.210;2022-12-16T14:41:04;5.47;;;3.58;;
529;SDS011;251;48.704;9.210;2022-12-16T14:43:51;4.82;;;3.55;;
529;SDS011;251;48.704;9.210;2022-12-16T14:46:36;5.00;;;2.78;;
529;SDS011;251;48.704;9.210;2022-12-16T14:49:21;3.60;;;2.90;;
529;SDS011;251;48.704;9.210;2022-12-16T14:52:16;4.38;;;3.17;;
529;SDS011;251;48.704;9.210;2022-12-16T14:55:12;3.25;;;2.20;;
529;SDS011;251;48.704;9.210;2022-12-16T14:58:05;5.10;;;2.90;;
529;SDS011;251;48.704;9.210;2022-12-16T15:00:54;4.20;;;3.08;;
529;SDS011;251;48.704;9.210;2022-12-16T15:03:43;4.13;;;2.83;;
529;SDS011;251;48.704;9.210;2022-12-16T15:06:30;3.70;;;2.83;;
529;SDS011;251;48.704;9.210;2022-12-16T15:09:22;6.82;;;4.28;;
529;SDS011;251;48.704;9.210;2022-12-16T15:12:09;6.63;;;4.40;;
529;SDS011;251;48.704;9.210;2022-12-16T15:14:57;9.80;;;3.90;;
529;SDS011;251;48.704;9.210;2022-12-16T15:17:46;9.65;;;3.72;;
529;SDS011;251;48.704;9.210;2022-12-16T15:20:33;4.95;;;3.20;;
529;SDS011;251;48.704;9.210;2022-12-16T15:23:20;3.28;;;2.58;;
529;SDS011;251;48.704;9.210;2022-12-16T15:26:07;3.65;;;2.75;;
529;SDS011;251;48.704;9.210;2022-12-16T15:28:52;5.35;;;4.45;;
529;SDS011;251;48.704;9.210;2022-12-16T15:31:37;6.70;;;3.90;;
529;SDS011;251;48.704;9.210;2022-12-16T15:34:28;7.68;;;3.13;;
529;SDS011;251;48.704;9.210;2022-12-16T15:37:17;8.63;;;4.03;;
529;SDS011;251;48.704;9.210;2022-12-16T15:40:13;3.53;;;3.13;;
529;SDS011;251;48.704;9.210;2022-12-16T15:43:02;7.82;;;4.75;;
529;SDS011;251;48.704;9.210;2022-12-16T15:45:47;7.75;;;3.03;;
529;SDS011;251;48.704;9.210;2022-12-16T15:48:33;4.68;;;3.05;;
529;SDS011;251;48.704;9.210;2022-12-16T15:51:21;4.45;;;3.15;;
529;SDS011;251;48.704;9.210;2022-12-16T15:54:12;2.85;;;2.50;;
529;SDS011;251;48.704;9.210;2022-12-16T15:56:59;4.75;;;3.40;;
529;SDS011;251;48.704;9.210;2022-12-16T15:59:54;3.60;;;2.40;;
529;SDS011;251;48.704;9.210;2022-12-16T16:02:44;6.80;;;3.30;;
529;SDS011;251;48.704;9.210;2022-12-16T16:05:30;3.80;;;2.92;;
529;SDS011;251;48.704;9.210;2022-12-16T16:08:31;4.07;;;2.83;;
529;SDS011;251;48.704;9.210;2022-12-16T16:11:16;6.13;;;3.33;;
529;SDS011;251;48.704;9.210;2022-12-16T16:14:00;6.57;;;2.85;;
529;SDS011;251;48.704;9.210;2022-12-16T16:16:45;4.53;;;2.88;;
529;SDS011;251;48.704;9.210;2022-12-16T16:19:29;5.88;;;3.95;;
529;SDS011;251;48.704;9.210;2022-12-16T16:22:14;6.18;;;4.25;;
529;SDS011;251;48.704;9.210;2022-12-16T16:25:01;3.75;;;2.10;;
529;SDS011;251;48.704;9.210;2022-12-16T16:27:45;5.43;;;4.00;;
529;SDS011;251;48.704;9.210;2022-12-16T16:30:30;4.65;;;3.05;;
529;SDS011;251;48.704;9.210;2022-12-16T16:33:14;4.55;;;3.28;;
529;SDS011;251;48.704;9.210;2022-12-16T16:36:08;6.88;;;3.40;;
529;SDS011;251;48.704;9.210;2022-12-16T16:38:56;5.47;;;3.08;;
529;SDS011;251;48.704;9.210;2022-12-16T16:41:42;10.20;;;4.32;;
529;SDS011;251;48.704;9.210;2022-12-16T16:44:26;3.80;;;2.80;;
529;SDS011;251;48.704;9.210;2022-12-16T16:47:14;4.03;;;3.60;;
529;SDS011;251;48.704;9.210;2022-12-16T16:49:59;3.53;;;2.47;;
529;SDS011;251;48.704;9.210;2022-12-16T16:52:43;4.13;;;2.83;;
529;SDS011;251;48.704;9.210;2022-12-16T16:55:33;7.93;;;3.85;;
529;SDS011;251;48.704;9.210;2022-12-16T16:58:23;9.85;;;4.38;;
529;SDS011;251;48.704;9.210;2022-12-16T17:01:11;4.28;;;3.85;;
529;SDS011;251;48.704;9.210;2022-12-16T17:03:57;3.95;;;2.83;;
529;SDS011;251;48.704;9.210;2022-12-16T17:06:41;6.90;;;3.25;;
529;SDS011;251;48.704;9.210;2022-12-16T17:09:25;6.78;;;3.78;;
529;SDS011;251;48.704;9.210;2022-12-16T17:12:13;5.15;;;3.58;;
529;SDS011;251;48.704;9.210;2022-12-16T17:15:07;11.60;;;4.97;;
529;SDS011;251;48.704;9.210;2022-12-16T17:17:57;5.57;;;3.70;;
529;SDS011;251;48.704;9.210;2022-12-16T17:20:41;6.65;;;5.00;;
529;SDS011;251;48.704;9.210;2022-12-16T17:23:25;12.88;;;5.53;;
529;SDS011;251;48.704;9.210;2022-12-16T17:26:09;4.20;;;3.45;;
529;SDS011;251;48.704;9.210;2022-12-16T17:28:54;3.80;;;3.00;;
529;SDS011;251;48.704;9.210;2022-12-16T17:31:39;8.50;;;3.00;;
529;SDS011;251;48.704;9.210;2022-12-16T17:34:23;7.60;;;4.10;;
529;SDS011;251;48.704;9.210;2022-12-16T17:37:08;4.93;;;3.20;;
529;SDS011;251;48.704;9.210;2022-12-16T17:39:58;3.00;;;2.30;;